sensor_id;sensor_type;location;lat;lon;timestamp;P1;durP1;ratioP1;P2;durP2;ratioP2
33826;SDS011;20128;45.582;5.298;2024-03-23T00:54:22;14.00;;;4.70;;
33826;SDS011;20128;45.582;5.298;2024-03-23T00:56:47;17.00;;;5.22;;
33826;SDS011;20128;45.582;5.298;2024-03-23T00:59:13;15.32;;;5.80;;
33826;SDS011;20128;45.582;5.298;2024-03-23T01:01:39;11.13;;;5.20;;
33826;SDS011;20128;45.582;5.298;2024-03-23T01:04:04;12.23;;;5.70;;
33826;SDS011;20128;45.582;5.298;2024-03-23T01:06:30;13.48;;;5.47;;
33826;SDS011;20128;45.582;5.298;2024-03-23T01:08:56;15.35;;;5.47;;
33826;SDS011;20128;45.582;5.298;2024-03-23T01:11:21;12.05;;;4.63;;
33826;SDS011;20128;45.582;5.298;2024-03-23T01:13:47;11.48;;;4.63;;
33826;SDS011;20128;45.582;5.298;2024-03-23T01:16:13;11.68;;;5.05;;
33826;SDS011;20128;45.582;5.298;2024-03-23T01:18:38;9.45;;;4.50;;
33826;SDS011;20128;45.582;5.298;2024-03-23T01:21:04;14.60;;;5.13;;
33826;SDS011;20128;45.582;5.298;2024-03-23T01:23:29;11.27;;;4.97;;
33826;SDS011;20128;45.582;5.298;2024-03-23T01:25:55;9.00;;;4.38;;
33826;SDS011;20128;45.582;5.298;2024-03-23T01:28:21;10.07;;;4.50;;
33826;SDS011;20128;45.582;5.298;2024-03-23T01:30:47;10.20;;;4.32;;
33826;SDS011;20128;45.582;5.298;2024-03-23T01:33:14;10.80;;;4.30;;
33826;SDS011;20128;45.582;5.298;2024-03-23T01:35:40;15.05;;;4.65;;
33826;SDS011;20128;45.582;5.298;2024-03-23T01:38:05;7.28;;;3.70;;
33826;SDS011;20128;45.582;5.298;2024-03-23T01:40:32;8.75;;;4.75;;
33826;SDS011;20128;45.582;5.298;2024-03-23T01:42:58;13.98;;;5.60;;
33826;SDS011;20128;45.582;5.298;2024-03-23T01:45:29;12.52;;;5.00;;
33826;SDS011;20128;45.582;5.298;2024-03-23T01:47:55;7.07;;;4.53;;
33826;SDS011;20128;45.582;5.298;2024-03-23T01:50:21;10.38;;;5.35;;
33826;SDS011;20128;45.582;5.298;2024-03-23T01:52:48;14.43;;;5.60;;
33826;SDS011;20128;45.582;5.298;2024-03-23T01:55:14;14.55;;;5.97;;
33826;SDS011;20128;45.582;5.298;2024-03-23T01:57:39;12.52;;;5.30;;
33826;SDS011;20128;45.582;5.298;2024-03-23T02:00:05;10.70;;;5.60;;
33826;SDS011;20128;45.582;5.298;2024-03-23T02:02:31;11.77;;;5.18;;
33826;SDS011;20128;45.582;5.298;2024-03-23T02:04:57;12.68;;;5.25;;
33826;SDS011;20128;45.582;5.298;2024-03-23T02:07:23;12.10;;;5.60;;
33826;SDS011;20128;45.582;5.298;2024-03-23T02:09:50;13.38;;;5.88;;
33826;SDS011;20128;45.582;5.298;2024-03-23T02:12:16;10.52;;;6.15;;
33826;SDS011;20128;45.582;5.298;2024-03-23T02:14:42;12.13;;;5.38;;
33826;SDS011;20128;45.582;5.298;2024-03-23T02:17:08;12.45;;;5.68;;
33826;SDS011;20128;45.582;5.298;2024-03-23T02:19:34;14.70;;;5.82;;
33826;SDS011;20128;45.582;5.298;2024-03-23T02:22:00;6.13;;;4.00;;
33826;SDS011;20128;45.582;5.298;2024-03-23T02:24:25;10.38;;;4.85;;
33826;SDS011;20128;45.582;5.298;2024-03-23T02:26:51;8.98;;;4.97;;
33826;SDS011;20128;45.582;5.298;2024-03-23T02:29:17;11.10;;;4.40;;
33826;SDS011;20128;45.582;5.298;2024-03-23T02:31:42;7.60;;;4.20;;
33826;SDS011;20128;45.582;5.298;2024-03-23T02:34:08;9.63;;;5.07;;
33826;SDS011;20128;45.582;5.298;2024-03-23T02:36:34;11.65;;;4.68;;
33826;SDS011;20128;45.582;5.298;2024-03-23T02:38:59;11.57;;;4.80;;
33826;SDS011;20128;45.582;5.298;2024-03-23T02:41:25;11.10;;;4.32;;
33826;SDS011;20128;45.582;5.298;2024-03-23T02:43:50;10.85;;;4.05;;
33826;SDS011;20128;45.582;5.298;2024-03-23T02:46:16;11.77;;;3.80;;
33826;SDS011;20128;45.582;5.298;2024-03-23T02:48:42;8.32;;;4.13;;
33826;SDS011;20128;45.582;5.298;2024-03-23T02:51:08;9.15;;;4.38;;
33826;SDS011;20128;45.582;5.298;2024-03-23T02:53:34;10.63;;;5.00;;
33826;SDS011;20128;45.582;5.298;2024-03-23T02:55:59;12.02;;;4.95;;
33826;SDS011;20128;45.582;5.298;2024-03-23T02:58:25;15.70;;;6.07;;
33826;SDS011;20128;45.582;5.298;2024-03-23T03:00:50;11.18;;;5.93;;
33826;SDS011;20128;45.582;5.298;2024-03-23T03:03:16;16.05;;;5.45;;
33826;SDS011;20128;45.582;5.298;2024-03-23T03:05:42;7.47;;;4.30;;
33826;SDS011;20128;45.582;5.298;2024-03-23T03:08:08;16.63;;;5.45;;
33826;SDS011;20128;45.582;5.298;2024-03-23T03:10:34;15.55;;;6.55;;
33826;SDS011;20128;45.582;5.298;2024-03-23T03:13:01;14.50;;;4.78;;
33826;SDS011;20128;45.582;5.298;2024-03-23T03:15:28;9.32;;;4.45;;
33826;SDS011;20128;45.582;5.298;2024-03-23T03:17:53;7.38;;;4.10;;
33826;SDS011;20128;45.582;5.298;2024-03-23T03:20:19;14.80;;;5.90;;
33826;SDS011;20128;45.582;5.298;2024-03-23T03:22:47;11.23;;;5.68;;
33826;SDS011;20128;45.582;5.298;2024-03-23T03:25:13;9.05;;;4.63;;
33826;SDS011;20128;45.582;5.298;2024-03-23T03:27:38;11.25;;;5.53;;
33826;SDS011;20128;45.582;5.298;2024-03-23T03:30:04;11.70;;;4.97;;
33826;SDS011;20128;45.582;5.298;2024-03-23T03:32:32;12.50;;;5.15;;
33826;SDS011;20128;45.582;5.298;2024-03-23T03:34:57;10.40;;;4.80;;
33826;SDS011;20128;45.582;5.298;2024-03-23T03:37:23;9.00;;;4.30;;
33826;SDS011;20128;45.582;5.298;2024-03-23T03:39:49;9.95;;;4.63;;
33826;SDS011;20128;45.582;5.298;2024-03-23T03:42:15;11.07;;;4.68;;
33826;SDS011;20128;45.582;5.298;2024-03-23T03:44:40;11.88;;;6.32;;
33826;SDS011;20128;45.582;5.298;2024-03-23T03:47:06;13.68;;;5.07;;
33826;SDS011;20128;45.582;5.298;2024-03-23T03:49:32;8.90;;;4.75;;
33826;SDS011;20128;45.582;5.298;2024-03-23T03:51:58;7.35;;;4.15;;
33826;SDS011;20128;45.582;5.298;2024-03-23T03:54:23;25.88;;;5.55;;
33826;SDS011;20128;45.582;5.298;2024-03-23T03:56:49;12.70;;;5.25;;
33826;SDS011;20128;45.582;5.298;2024-03-23T03:59:15;14.32;;;5.38;;
33826;SDS011;20128;45.582;5.298;2024-03-23T04:01:42;10.77;;;5.55;;
33826;SDS011;20128;45.582;5.298;2024-03-23T04:04:07;16.38;;;5.53;;
33826;SDS011;20128;45.582;5.298;2024-03-23T04:06:33;13.75;;;5.75;;
33826;SDS011;20128;45.582;5.298;2024-03-23T04:08:59;12.00;;;5.35;;
33826;SDS011;20128;45.582;5.298;2024-03-23T04:11:24;9.63;;;5.20;;
33826;SDS011;20128;45.582;5.298;2024-03-23T04:13:50;12.25;;;5.03;;
33826;SDS011;20128;45.582;5.298;2024-03-23T04:16:29;10.45;;;5.13;;
33826;SDS011;20128;45.582;5.298;2024-03-23T04:18:57;11.27;;;4.57;;
33826;SDS011;20128;45.582;5.298;2024-03-23T04:21:23;10.40;;;4.97;;
33826;SDS011;20128;45.582;5.298;2024-03-23T04:23:48;11.45;;;5.32;;
33826;SDS011;20128;45.582;5.298;2024-03-23T04:26:15;10.68;;;5.60;;
33826;SDS011;20128;45.582;5.298;2024-03-23T04:28:40;9.55;;;5.07;;
33826;SDS011;20128;45.582;5.298;2024-03-23T04:31:06;10.05;;;4.65;;
33826;SDS011;20128;45.582;5.298;2024-03-23T04:33:32;11.07;;;5.65;;
33826;SDS011;20128;45.582;5.298;2024-03-23T04:35:57;15.52;;;5.20;;
33826;SDS011;20128;45.582;5.298;2024-03-23T04:38:23;12.40;;;5.43;;
33826;SDS011;20128;45.582;5.298;2024-03-23T04:40:58;11.75;;;5.18;;
33826;SDS011;20128;45.582;5.298;2024-03-23T04:43:25;14.52;;;5.70;;
33826;SDS011;20128;45.582;5.298;2024-03-23T04:45:51;19.35;;;5.78;;
33826;SDS011;20128;45.582;5.298;2024-03-23T04:48:19;12.60;;;6.30;;
33826;SDS011;20128;45.582;5.298;2024-03-23T04:50:47;12.50;;;5.07;;
33826;SDS011;20128;45.582;5.298;2024-03-23T04:53:13;9.50;;;5.38;;
33826;SDS011;20128;45.582;5.298;2024-03-23T04:55:38;8.43;;;4.15;;
33826;SDS011;20128;45.582;5.298;2024-03-23T04:58:04;10.88;;;5.43;;
33826;SDS011;20128;45.582;5.298;2024-03-23T05:00:29;10.68;;;4.47;;
33826;SDS011;20128;45.582;5.298;2024-03-23T05:02:55;8.02;;;4.50;;
33826;SDS011;20128;45.582;5.298;2024-03-23T05:05:21;12.63;;;5.90;;
33826;SDS011;20128;45.582;5.298;2024-03-23T05:07:46;11.52;;;5.47;;
33826;SDS011;20128;45.582;5.298;2024-03-23T05:10:12;12.85;;;5.05;;
33826;SDS011;20128;45.582;5.298;2024-03-23T05:12:38;7.50;;;4.72;;
33826;SDS011;20128;45.582;5.298;2024-03-23T05:15:05;12.55;;;5.80;;
33826;SDS011;20128;45.582;5.298;2024-03-23T05:17:33;8.48;;;5.30;;
33826;SDS011;20128;45.582;5.298;2024-03-23T05:20:00;8.43;;;5.25;;
33826;SDS011;20128;45.582;5.298;2024-03-23T05:22:25;15.70;;;7.07;;
33826;SDS011;20128;45.582;5.298;2024-03-23T05:24:52;13.38;;;7.22;;
33826;SDS011;20128;45.582;5.298;2024-03-23T05:27:18;17.90;;;6.78;;
33826;SDS011;20128;45.582;5.298;2024-03-23T05:29:44;17.42;;;8.15;;
33826;SDS011;20128;45.582;5.298;2024-03-23T05:32:09;13.35;;;5.95;;
33826;SDS011;20128;45.582;5.298;2024-03-23T05:34:35;16.30;;;7.80;;
33826;SDS011;20128;45.582;5.298;2024-03-23T05:37:01;16.40;;;7.97;;
33826;SDS011;20128;45.582;5.298;2024-03-23T05:39:27;15.40;;;8.00;;
33826;SDS011;20128;45.582;5.298;2024-03-23T05:41:53;11.95;;;6.07;;
33826;SDS011;20128;45.582;5.298;2024-03-23T05:44:22;16.42;;;8.15;;
33826;SDS011;20128;45.582;5.298;2024-03-23T05:46:50;14.57;;;7.85;;
33826;SDS011;20128;45.582;5.298;2024-03-23T05:49:16;13.68;;;7.32;;
33826;SDS011;20128;45.582;5.298;2024-03-23T05:51:43;18.52;;;8.38;;
33826;SDS011;20128;45.582;5.298;2024-03-23T05:54:09;11.18;;;6.80;;
33826;SDS011;20128;45.582;5.298;2024-03-23T05:56:34;14.55;;;7.03;;
33826;SDS011;20128;45.582;5.298;2024-03-23T05:59:00;16.38;;;7.25;;
33826;SDS011;20128;45.582;5.298;2024-03-23T06:01:25;9.13;;;5.68;;
33826;SDS011;20128;45.582;5.298;2024-03-23T06:03:53;16.75;;;7.50;;
33826;SDS011;20128;45.582;5.298;2024-03-23T06:06:19;20.20;;;7.78;;
33826;SDS011;20128;45.582;5.298;2024-03-23T06:08:45;17.05;;;8.48;;
33826;SDS011;20128;45.582;5.298;2024-03-23T06:11:14;16.40;;;6.68;;
33826;SDS011;20128;45.582;5.298;2024-03-23T06:13:42;13.52;;;6.70;;
33826;SDS011;20128;45.582;5.298;2024-03-23T06:16:10;12.18;;;6.63;;
33826;SDS011;20128;45.582;5.298;2024-03-23T06:18:35;11.43;;;6.88;;
33826;SDS011;20128;45.582;5.298;2024-03-23T06:21:04;16.77;;;7.45;;
33826;SDS011;20128;45.582;5.298;2024-03-23T06:23:37;12.38;;;7.25;;
33826;SDS011;20128;45.582;5.298;2024-03-23T06:26:03;15.05;;;6.68;;
33826;SDS011;20128;45.582;5.298;2024-03-23T06:28:29;12.02;;;5.90;;
33826;SDS011;20128;45.582;5.298;2024-03-23T06:30:54;8.55;;;6.03;;
33826;SDS011;20128;45.582;5.298;2024-03-23T06:33:20;10.93;;;5.93;;
33826;SDS011;20128;45.582;5.298;2024-03-23T06:35:53;12.38;;;6.78;;
33826;SDS011;20128;45.582;5.298;2024-03-23T06:38:19;12.77;;;6.50;;
33826;SDS011;20128;45.582;5.298;2024-03-23T06:40:47;12.95;;;5.65;;
33826;SDS011;20128;45.582;5.298;2024-03-23T06:43:18;10.55;;;6.85;;
33826;SDS011;20128;45.582;5.298;2024-03-23T06:45:53;14.07;;;6.05;;
33826;SDS011;20128;45.582;5.298;2024-03-23T06:48:19;10.82;;;6.25;;
33826;SDS011;20128;45.582;5.298;2024-03-23T06:50:47;10.10;;;6.00;;
33826;SDS011;20128;45.582;5.298;2024-03-23T06:53:20;13.80;;;5.65;;
33826;SDS011;20128;45.582;5.298;2024-03-23T06:55:49;11.38;;;5.65;;
33826;SDS011;20128;45.582;5.298;2024-03-23T06:58:16;9.55;;;5.93;;
33826;SDS011;20128;45.582;5.298;2024-03-23T07:00:43;12.20;;;6.70;;
33826;SDS011;20128;45.582;5.298;2024-03-23T07:03:08;10.80;;;6.57;;
33826;SDS011;20128;45.582;5.298;2024-03-23T07:05:34;10.10;;;6.03;;
33826;SDS011;20128;45.582;5.298;2024-03-23T07:08:06;10.43;;;5.80;;
33826;SDS011;20128;45.582;5.298;2024-03-23T07:10:32;11.77;;;6.53;;
33826;SDS011;20128;45.582;5.298;2024-03-23T07:12:58;9.55;;;5.70;;
33826;SDS011;20128;45.582;5.298;2024-03-23T07:15:24;13.63;;;6.45;;
33826;SDS011;20128;45.582;5.298;2024-03-23T07:17:49;14.57;;;2.47;;
33826;SDS011;20128;45.582;5.298;2024-03-23T07:20:15;7.45;;;1.63;;
33826;SDS011;20128;45.582;5.298;2024-03-23T07:22:41;4.43;;;0.80;;
33826;SDS011;20128;45.582;5.298;2024-03-23T07:25:07;3.08;;;0.50;;
33826;SDS011;20128;45.582;5.298;2024-03-23T07:27:32;2.53;;;0.50;;
33826;SDS011;20128;45.582;5.298;2024-03-23T07:29:59;6.35;;;0.45;;
33826;SDS011;20128;45.582;5.298;2024-03-23T07:32:26;2.35;;;0.57;;
33826;SDS011;20128;45.582;5.298;2024-03-23T07:34:52;2.38;;;0.68;;
33826;SDS011;20128;45.582;5.298;2024-03-23T07:37:18;1.55;;;0.47;;
33826;SDS011;20128;45.582;5.298;2024-03-23T07:39:43;2.22;;;0.45;;
33826;SDS011;20128;45.582;5.298;2024-03-23T07:42:09;1.50;;;0.50;;
33826;SDS011;20128;45.582;5.298;2024-03-23T07:44:37;3.13;;;0.65;;
33826;SDS011;20128;45.582;5.298;2024-03-23T07:47:03;1.67;;;0.60;;
33826;SDS011;20128;45.582;5.298;2024-03-23T07:49:28;3.08;;;0.60;;
33826;SDS011;20128;45.582;5.298;2024-03-23T07:52:16;2.05;;;0.70;;
33826;SDS011;20128;45.582;5.298;2024-03-23T08:35:11;10.25;;;1.67;;
33826;SDS011;20128;45.582;5.298;2024-03-23T09:09:22;9.93;;;1.88;;
33826;SDS011;20128;45.582;5.298;2024-03-23T09:11:58;11.10;;;1.77;;
33826;SDS011;20128;45.582;5.298;2024-03-23T09:14:23;10.55;;;2.03;;
33826;SDS011;20128;45.582;5.298;2024-03-23T09:16:50;22.80;;;2.83;;
33826;SDS011;20128;45.582;5.298;2024-03-23T09:19:16;18.02;;;3.03;;
33826;SDS011;20128;45.582;5.298;2024-03-23T09:21:42;9.93;;;1.60;;
33826;SDS011;20128;45.582;5.298;2024-03-23T09:24:11;8.02;;;1.63;;
33826;SDS011;20128;45.582;5.298;2024-03-23T09:26:39;9.23;;;1.60;;
33826;SDS011;20128;45.582;5.298;2024-03-23T09:29:08;12.75;;;2.03;;
33826;SDS011;20128;45.582;5.298;2024-03-23T09:31:34;12.07;;;2.63;;
33826;SDS011;20128;45.582;5.298;2024-03-23T09:33:59;16.35;;;2.30;;
33826;SDS011;20128;45.582;5.298;2024-03-23T09:36:25;16.92;;;2.08;;
33826;SDS011;20128;45.582;5.298;2024-03-23T09:38:51;7.28;;;2.08;;
33826;SDS011;20128;45.582;5.298;2024-03-23T09:41:16;6.72;;;1.58;;
33826;SDS011;20128;45.582;5.298;2024-03-23T09:43:42;10.95;;;1.92;;
33826;SDS011;20128;45.582;5.298;2024-03-23T09:46:08;12.70;;;2.72;;
33826;SDS011;20128;45.582;5.298;2024-03-23T09:48:34;10.82;;;2.08;;
33826;SDS011;20128;45.582;5.298;2024-03-23T09:51:01;12.77;;;1.85;;
33826;SDS011;20128;45.582;5.298;2024-03-23T09:53:27;11.38;;;2.42;;
33826;SDS011;20128;45.582;5.298;2024-03-23T09:55:53;13.70;;;2.50;;
33826;SDS011;20128;45.582;5.298;2024-03-23T09:58:20;14.48;;;2.30;;
33826;SDS011;20128;45.582;5.298;2024-03-23T10:00:46;16.63;;;2.17;;
33826;SDS011;20128;45.582;5.298;2024-03-23T10:03:11;9.65;;;1.67;;
33826;SDS011;20128;45.582;5.298;2024-03-23T10:05:38;11.00;;;2.30;;
33826;SDS011;20128;45.582;5.298;2024-03-23T10:10:38;11.43;;;1.80;;
33826;SDS011;20128;45.582;5.298;2024-03-23T10:13:04;13.60;;;1.95;;
33826;SDS011;20128;45.582;5.298;2024-03-23T10:15:30;13.70;;;2.88;;
33826;SDS011;20128;45.582;5.298;2024-03-23T10:18:02;8.95;;;1.92;;
33826;SDS011;20128;45.582;5.298;2024-03-23T10:20:43;14.10;;;2.10;;
33826;SDS011;20128;45.582;5.298;2024-03-23T10:23:18;8.65;;;2.13;;
33826;SDS011;20128;45.582;5.298;2024-03-23T10:25:43;9.00;;;1.42;;
33826;SDS011;20128;45.582;5.298;2024-03-23T10:28:10;9.95;;;2.08;;
33826;SDS011;20128;45.582;5.298;2024-03-23T10:30:36;8.00;;;1.80;;
33826;SDS011;20128;45.582;5.298;2024-03-23T10:33:09;10.43;;;2.00;;
33826;SDS011;20128;45.582;5.298;2024-03-23T10:35:36;15.13;;;1.88;;
33826;SDS011;20128;45.582;5.298;2024-03-23T10:38:05;8.95;;;1.55;;
33826;SDS011;20128;45.582;5.298;2024-03-23T10:40:34;11.85;;;1.88;;
33826;SDS011;20128;45.582;5.298;2024-03-23T10:43:00;12.13;;;2.00;;
33826;SDS011;20128;45.582;5.298;2024-03-23T10:45:27;8.82;;;1.95;;
33826;SDS011;20128;45.582;5.298;2024-03-23T10:47:53;11.95;;;1.80;;
33826;SDS011;20128;45.582;5.298;2024-03-23T10:50:19;11.50;;;1.65;;
33826;SDS011;20128;45.582;5.298;2024-03-23T10:52:48;16.67;;;2.10;;
33826;SDS011;20128;45.582;5.298;2024-03-23T10:55:15;13.70;;;1.95;;
33826;SDS011;20128;45.582;5.298;2024-03-23T10:57:44;10.30;;;1.67;;
33826;SDS011;20128;45.582;5.298;2024-03-23T11:00:14;7.45;;;1.58;;
33826;SDS011;20128;45.582;5.298;2024-03-23T11:02:41;8.65;;;1.40;;
33826;SDS011;20128;45.582;5.298;2024-03-23T11:10:26;7.50;;;1.63;;
33826;SDS011;20128;45.582;5.298;2024-03-23T11:12:54;14.77;;;1.90;;
33826;SDS011;20128;45.582;5.298;2024-03-23T11:15:20;5.32;;;1.20;;
33826;SDS011;20128;45.582;5.298;2024-03-23T11:18:20;7.65;;;1.35;;
33826;SDS011;20128;45.582;5.298;2024-03-23T11:20:45;15.52;;;1.73;;
33826;SDS011;20128;45.582;5.298;2024-03-23T11:23:20;7.95;;;1.60;;
33826;SDS011;20128;45.582;5.298;2024-03-23T11:25:52;7.03;;;1.60;;
33826;SDS011;20128;45.582;5.298;2024-03-23T11:28:18;8.57;;;1.45;;
33826;SDS011;20128;45.582;5.298;2024-03-23T11:30:44;6.78;;;1.67;;
33826;SDS011;20128;45.582;5.298;2024-03-23T11:33:09;8.02;;;1.35;;
33826;SDS011;20128;45.582;5.298;2024-03-23T11:35:38;11.88;;;1.80;;
33826;SDS011;20128;45.582;5.298;2024-03-23T11:38:08;11.65;;;1.65;;
33826;SDS011;20128;45.582;5.298;2024-03-23T11:40:38;6.57;;;1.75;;
33826;SDS011;20128;45.582;5.298;2024-03-23T11:43:06;11.82;;;2.15;;
33826;SDS011;20128;45.582;5.298;2024-03-23T11:45:42;12.32;;;1.80;;
33826;SDS011;20128;45.582;5.298;2024-03-23T11:50:39;11.00;;;1.52;;
33826;SDS011;20128;45.582;5.298;2024-03-23T11:53:07;8.40;;;1.33;;
33826;SDS011;20128;45.582;5.298;2024-03-23T11:55:52;7.72;;;1.55;;
33826;SDS011;20128;45.582;5.298;2024-03-23T11:58:19;8.90;;;1.60;;
33826;SDS011;20128;45.582;5.298;2024-03-23T12:00:49;4.68;;;1.10;;
33826;SDS011;20128;45.582;5.298;2024-03-23T12:03:35;6.22;;;1.23;;
33826;SDS011;20128;45.582;5.298;2024-03-23T12:06:02;8.80;;;1.52;;
33826;SDS011;20128;45.582;5.298;2024-03-23T12:11:08;3.95;;;1.00;;
33826;SDS011;20128;45.582;5.298;2024-03-23T12:13:39;6.60;;;1.55;;
33826;SDS011;20128;45.582;5.298;2024-03-23T12:16:13;7.18;;;1.38;;
33826;SDS011;20128;45.582;5.298;2024-03-23T12:18:42;5.53;;;1.87;;
33826;SDS011;20128;45.582;5.298;2024-03-23T12:21:16;5.65;;;1.40;;
33826;SDS011;20128;45.582;5.298;2024-03-23T12:23:42;7.32;;;1.58;;
33826;SDS011;20128;45.582;5.298;2024-03-23T12:26:12;7.47;;;1.30;;
33826;SDS011;20128;45.582;5.298;2024-03-23T12:28:38;5.18;;;1.13;;
33826;SDS011;20128;45.582;5.298;2024-03-23T12:31:04;7.22;;;1.27;;
33826;SDS011;20128;45.582;5.298;2024-03-23T12:33:30;2.88;;;0.70;;
33826;SDS011;20128;45.582;5.298;2024-03-23T12:35:56;7.72;;;0.85;;
33826;SDS011;20128;45.582;5.298;2024-03-23T12:38:22;4.55;;;1.10;;
33826;SDS011;20128;45.582;5.298;2024-03-23T12:40:50;15.82;;;1.70;;
33826;SDS011;20128;45.582;5.298;2024-03-23T12:43:16;6.18;;;0.90;;
33826;SDS011;20128;45.582;5.298;2024-03-23T12:45:46;5.32;;;1.25;;
33826;SDS011;20128;45.582;5.298;2024-03-23T12:48:13;3.70;;;0.93;;
33826;SDS011;20128;45.582;5.298;2024-03-23T12:50:38;10.68;;;0.90;;
33826;SDS011;20128;45.582;5.298;2024-03-23T12:53:04;5.05;;;1.00;;
33826;SDS011;20128;45.582;5.298;2024-03-23T12:55:29;3.25;;;1.20;;
33826;SDS011;20128;45.582;5.298;2024-03-23T12:57:55;4.97;;;1.10;;
33826;SDS011;20128;45.582;5.298;2024-03-23T13:00:21;5.75;;;0.93;;
33826;SDS011;20128;45.582;5.298;2024-03-23T13:02:47;9.40;;;1.20;;
33826;SDS011;20128;45.582;5.298;2024-03-23T13:05:13;7.18;;;1.25;;
33826;SDS011;20128;45.582;5.298;2024-03-23T13:07:38;6.05;;;1.25;;
33826;SDS011;20128;45.582;5.298;2024-03-23T13:10:05;9.00;;;1.15;;
33826;SDS011;20128;45.582;5.298;2024-03-23T13:12:31;5.07;;;0.98;;
33826;SDS011;20128;45.582;5.298;2024-03-23T13:14:57;6.57;;;1.17;;
33826;SDS011;20128;45.582;5.298;2024-03-23T13:17:24;6.30;;;1.20;;
33826;SDS011;20128;45.582;5.298;2024-03-23T13:19:51;5.32;;;0.98;;
33826;SDS011;20128;45.582;5.298;2024-03-23T13:22:18;6.90;;;1.00;;
33826;SDS011;20128;45.582;5.298;2024-03-23T13:24:43;7.35;;;1.10;;
33826;SDS011;20128;45.582;5.298;2024-03-23T13:27:09;5.32;;;0.73;;
33826;SDS011;20128;45.582;5.298;2024-03-23T13:29:36;5.68;;;1.17;;
33826;SDS011;20128;45.582;5.298;2024-03-23T13:32:02;6.28;;;0.98;;
33826;SDS011;20128;45.582;5.298;2024-03-23T13:34:28;11.43;;;1.55;;
33826;SDS011;20128;45.582;5.298;2024-03-23T13:36:55;8.27;;;1.27;;
33826;SDS011;20128;45.582;5.298;2024-03-23T13:39:23;3.03;;;0.70;;
33826;SDS011;20128;45.582;5.298;2024-03-23T13:41:50;8.48;;;1.25;;
33826;SDS011;20128;45.582;5.298;2024-03-23T13:44:16;3.25;;;1.10;;
33826;SDS011;20128;45.582;5.298;2024-03-23T13:46:41;4.13;;;1.25;;
33826;SDS011;20128;45.582;5.298;2024-03-23T13:49:13;4.20;;;0.70;;
33826;SDS011;20128;45.582;5.298;2024-03-23T13:51:48;7.38;;;1.52;;
33826;SDS011;20128;45.582;5.298;2024-03-23T13:54:13;9.00;;;1.30;;
33826;SDS011;20128;45.582;5.298;2024-03-23T13:56:39;5.55;;;0.82;;
33826;SDS011;20128;45.582;5.298;2024-03-23T13:59:05;6.93;;;1.35;;
33826;SDS011;20128;45.582;5.298;2024-03-23T14:01:30;11.77;;;1.75;;
33826;SDS011;20128;45.582;5.298;2024-03-23T14:03:56;2.88;;;0.90;;
33826;SDS011;20128;45.582;5.298;2024-03-23T14:06:22;3.25;;;0.95;;
33826;SDS011;20128;45.582;5.298;2024-03-23T14:08:49;4.72;;;0.82;;
33826;SDS011;20128;45.582;5.298;2024-03-23T14:11:17;11.48;;;1.30;;
33826;SDS011;20128;45.582;5.298;2024-03-23T14:13:43;5.07;;;1.33;;
33826;SDS011;20128;45.582;5.298;2024-03-23T14:16:09;10.98;;;1.25;;
33826;SDS011;20128;45.582;5.298;2024-03-23T14:18:35;8.55;;;1.83;;
33826;SDS011;20128;45.582;5.298;2024-03-23T14:21:00;6.78;;;1.15;;
33826;SDS011;20128;45.582;5.298;2024-03-23T14:23:27;3.70;;;1.02;;
33826;SDS011;20128;45.582;5.298;2024-03-23T14:25:59;6.10;;;1.43;;
33826;SDS011;20128;45.582;5.298;2024-03-23T14:28:25;4.00;;;0.80;;
33826;SDS011;20128;45.582;5.298;2024-03-23T14:30:51;8.48;;;1.52;;
33826;SDS011;20128;45.582;5.298;2024-03-23T14:33:17;7.05;;;1.50;;
33826;SDS011;20128;45.582;5.298;2024-03-23T14:35:43;6.05;;;1.13;;
33826;SDS011;20128;45.582;5.298;2024-03-23T14:38:19;4.03;;;1.13;;
33826;SDS011;20128;45.582;5.298;2024-03-23T14:40:45;11.52;;;1.17;;
33826;SDS011;20128;45.582;5.298;2024-03-23T14:43:11;9.23;;;1.92;;
33826;SDS011;20128;45.582;5.298;2024-03-23T14:45:45;4.88;;;1.15;;
33826;SDS011;20128;45.582;5.298;2024-03-23T14:48:33;5.10;;;1.17;;
33826;SDS011;20128;45.582;5.298;2024-03-23T14:50:59;3.03;;;0.82;;
33826;SDS011;20128;45.582;5.298;2024-03-23T14:53:26;9.65;;;1.40;;
33826;SDS011;20128;45.582;5.298;2024-03-23T14:55:55;7.72;;;1.42;;
33826;SDS011;20128;45.582;5.298;2024-03-23T14:58:21;8.05;;;1.38;;
33826;SDS011;20128;45.582;5.298;2024-03-23T15:00:48;6.68;;;1.23;;
33826;SDS011;20128;45.582;5.298;2024-03-23T15:03:14;9.32;;;1.27;;
33826;SDS011;20128;45.582;5.298;2024-03-23T15:05:40;6.72;;;1.52;;
33826;SDS011;20128;45.582;5.298;2024-03-23T15:08:05;7.45;;;1.27;;
33826;SDS011;20128;45.582;5.298;2024-03-23T15:10:34;7.28;;;1.35;;
33826;SDS011;20128;45.582;5.298;2024-03-23T15:13:00;9.48;;;1.40;;
33826;SDS011;20128;45.582;5.298;2024-03-23T15:15:25;10.40;;;1.70;;
33826;SDS011;20128;45.582;5.298;2024-03-23T15:17:53;5.00;;;1.00;;
33826;SDS011;20128;45.582;5.298;2024-03-23T15:20:19;5.72;;;1.17;;
33826;SDS011;20128;45.582;5.298;2024-03-23T15:22:44;10.02;;;2.65;;
33826;SDS011;20128;45.582;5.298;2024-03-23T15:25:10;7.15;;;1.38;;
33826;SDS011;20128;45.582;5.298;2024-03-23T15:27:35;5.30;;;1.42;;
33826;SDS011;20128;45.582;5.298;2024-03-23T15:30:01;7.63;;;1.23;;
33826;SDS011;20128;45.582;5.298;2024-03-23T15:32:27;15.10;;;2.20;;
33826;SDS011;20128;45.582;5.298;2024-03-23T15:34:52;7.30;;;1.42;;
33826;SDS011;20128;45.582;5.298;2024-03-23T15:37:18;7.47;;;1.48;;
33826;SDS011;20128;45.582;5.298;2024-03-23T15:39:43;7.43;;;1.73;;
33826;SDS011;20128;45.582;5.298;2024-03-23T15:42:09;5.88;;;0.98;;
33826;SDS011;20128;45.582;5.298;2024-03-23T15:44:35;7.50;;;1.10;;
33826;SDS011;20128;45.582;5.298;2024-03-23T15:47:01;10.38;;;1.45;;
33826;SDS011;20128;45.582;5.298;2024-03-23T15:49:27;6.97;;;2.72;;
33826;SDS011;20128;45.582;5.298;2024-03-23T15:51:53;6.00;;;1.75;;
33826;SDS011;20128;45.582;5.298;2024-03-23T15:54:18;6.78;;;1.23;;
33826;SDS011;20128;45.582;5.298;2024-03-23T15:56:45;7.43;;;1.15;;
33826;SDS011;20128;45.582;5.298;2024-03-23T15:59:10;5.72;;;1.60;;
33826;SDS011;20128;45.582;5.298;2024-03-23T16:01:36;11.10;;;1.58;;
33826;SDS011;20128;45.582;5.298;2024-03-23T16:04:03;7.88;;;1.42;;
33826;SDS011;20128;45.582;5.298;2024-03-23T16:06:29;9.35;;;1.90;;
33826;SDS011;20128;45.582;5.298;2024-03-23T16:08:54;8.57;;;1.23;;
33826;SDS011;20128;45.582;5.298;2024-03-23T16:11:20;21.15;;;2.25;;
33826;SDS011;20128;45.582;5.298;2024-03-23T16:13:46;11.13;;;2.30;;
33826;SDS011;20128;45.582;5.298;2024-03-23T16:16:11;10.48;;;1.48;;
33826;SDS011;20128;45.582;5.298;2024-03-23T16:18:38;6.45;;;1.35;;
33826;SDS011;20128;45.582;5.298;2024-03-23T16:21:08;13.60;;;1.92;;
33826;SDS011;20128;45.582;5.298;2024-03-23T16:23:34;5.20;;;1.10;;
33826;SDS011;20128;45.582;5.298;2024-03-23T16:26:03;4.05;;;1.20;;
33826;SDS011;20128;45.582;5.298;2024-03-23T16:28:30;7.85;;;1.33;;
33826;SDS011;20128;45.582;5.298;2024-03-23T16:30:57;10.20;;;1.60;;
33826;SDS011;20128;45.582;5.298;2024-03-23T16:33:24;8.43;;;2.78;;
33826;SDS011;20128;45.582;5.298;2024-03-23T16:38:22;9.23;;;1.35;;
33826;SDS011;20128;45.582;5.298;2024-03-23T16:40:54;8.90;;;1.52;;
33826;SDS011;20128;45.582;5.298;2024-03-23T16:43:31;5.80;;;1.35;;
33826;SDS011;20128;45.582;5.298;2024-03-23T16:45:57;5.32;;;1.13;;
33826;SDS011;20128;45.582;5.298;2024-03-23T16:48:25;6.53;;;1.15;;
33826;SDS011;20128;45.582;5.298;2024-03-23T16:50:51;4.45;;;1.33;;
33826;SDS011;20128;45.582;5.298;2024-03-23T16:53:18;12.38;;;2.08;;
33826;SDS011;20128;45.582;5.298;2024-03-23T16:55:44;4.30;;;1.42;;
33826;SDS011;20128;45.582;5.298;2024-03-23T16:58:10;6.47;;;1.60;;
33826;SDS011;20128;45.582;5.298;2024-03-23T17:00:36;8.13;;;1.75;;